sensor_id;sensor_type;location;lat;lon;timestamp;P1;durP1;ratioP1;P2;durP2;ratioP2
68614;SDS011;55593;51.994;5.882;2023-02-15T00:01:18;48.00;;;29.67;;
68614;SDS011;55593;51.994;5.882;2023-02-15T00:03:47;54.58;;;31.45;;
68614;SDS011;55593;51.994;5.882;2023-02-15T00:06:17;53.17;;;30.77;;
68614;SDS011;55593;51.994;5.882;2023-02-15T00:08:46;51.10;;;32.65;;
68614;SDS011;55593;51.994;5.882;2023-02-15T00:11:17;52.63;;;31.40;;
68614;SDS011;55593;51.994;5.882;2023-02-15T00:14:06;49.45;;;29.80;;
68614;SDS011;55593;51.994;5.882;2023-02-15T00:16:35;51.92;;;31.27;;
68614;SDS011;55593;51.994;5.882;2023-02-15T00:19:05;46.83;;;30.92;;
68614;SDS011;55593;51.994;5.882;2023-02-15T00:21:36;46.45;;;29.00;;
68614;SDS011;55593;51.994;5.882;2023-02-15T00:24:07;54.30;;;32.72;;
68614;SDS011;55593;51.994;5.882;2023-02-15T00:26:40;48.97;;;30.33;;
68614;SDS011;55593;51.994;5.882;2023-02-15T00:29:10;53.47;;;32.20;;
68614;SDS011;55593;51.994;5.882;2023-02-15T00:31:39;53.78;;;31.38;;
68614;SDS011;55593;51.994;5.882;2023-02-15T00:34:10;54.83;;;31.08;;
68614;SDS011;55593;51.994;5.882;2023-02-15T00:36:41;55.75;;;31.65;;
68614;SDS011;55593;51.994;5.882;2023-02-15T00:39:11;51.20;;;30.45;;
68614;SDS011;55593;51.994;5.882;2023-02-15T00:41:43;48.10;;;29.23;;
68614;SDS011;55593;51.994;5.882;2023-02-15T00:44:14;48.55;;;30.73;;
68614;SDS011;55593;51.994;5.882;2023-02-15T00:46:43;50.60;;;30.77;;
68614;SDS011;55593;51.994;5.882;2023-02-15T00:49:13;51.53;;;29.08;;
68614;SDS011;55593;51.994;5.882;2023-02-15T00:51:42;50.72;;;30.52;;
68614;SDS011;55593;51.994;5.882;2023-02-15T00:54:11;48.05;;;29.65;;
68614;SDS011;55593;51.994;5.882;2023-02-15T00:56:43;48.28;;;29.67;;
68614;SDS011;55593;51.994;5.882;2023-02-15T00:59:12;50.67;;;32.50;;
68614;SDS011;55593;51.994;5.882;2023-02-15T01:01:41;48.70;;;30.38;;
68614;SDS011;55593;51.994;5.882;2023-02-15T01:04:12;46.08;;;28.90;;
68614;SDS011;55593;51.994;5.882;2023-02-15T01:06:41;56.67;;;32.70;;
68614;SDS011;55593;51.994;5.882;2023-02-15T01:09:10;49.78;;;30.58;;
68614;SDS011;55593;51.994;5.882;2023-02-15T01:11:39;49.58;;;30.80;;
68614;SDS011;55593;51.994;5.882;2023-02-15T01:14:11;48.45;;;30.27;;
68614;SDS011;55593;51.994;5.882;2023-02-15T01:16:41;52.78;;;30.90;;
68614;SDS011;55593;51.994;5.882;2023-02-15T01:19:10;51.97;;;30.80;;
68614;SDS011;55593;51.994;5.882;2023-02-15T01:21:39;48.53;;;29.10;;
68614;SDS011;55593;51.994;5.882;2023-02-15T01:24:11;45.55;;;29.67;;
68614;SDS011;55593;51.994;5.882;2023-02-15T01:26:40;46.63;;;28.10;;
68614;SDS011;55593;51.994;5.882;2023-02-15T01:29:12;48.00;;;28.85;;
68614;SDS011;55593;51.994;5.882;2023-02-15T01:31:41;49.17;;;30.73;;
68614;SDS011;55593;51.994;5.882;2023-02-15T01:34:13;51.25;;;28.92;;
68614;SDS011;55593;51.994;5.882;2023-02-15T01:36:42;48.78;;;28.40;;
68614;SDS011;55593;51.994;5.882;2023-02-15T01:39:11;44.28;;;28.80;;
68614;SDS011;55593;51.994;5.882;2023-02-15T01:41:41;43.63;;;27.88;;
68614;SDS011;55593;51.994;5.882;2023-02-15T01:47:20;44.45;;;27.00;;
68614;SDS011;55593;51.994;5.882;2023-02-15T01:49:58;45.47;;;26.98;;
68614;SDS011;55593;51.994;5.882;2023-02-15T01:52:31;49.38;;;27.23;;
68614;SDS011;55593;51.994;5.882;2023-02-15T01:55:00;44.05;;;26.95;;
68614;SDS011;55593;51.994;5.882;2023-02-15T01:57:30;46.70;;;28.23;;
68614;SDS011;55593;51.994;5.882;2023-02-15T02:00:03;47.15;;;27.88;;
68614;SDS011;55593;51.994;5.882;2023-02-15T02:02:38;42.95;;;28.02;;
68614;SDS011;55593;51.994;5.882;2023-02-15T02:05:08;46.83;;;28.55;;
68614;SDS011;55593;51.994;5.882;2023-02-15T02:07:38;42.92;;;26.65;;
68614;SDS011;55593;51.994;5.882;2023-02-15T02:10:09;47.78;;;28.95;;
68614;SDS011;55593;51.994;5.882;2023-02-15T02:12:42;46.00;;;28.63;;
68614;SDS011;55593;51.994;5.882;2023-02-15T02:15:15;48.38;;;30.08;;
68614;SDS011;55593;51.994;5.882;2023-02-15T02:17:52;47.10;;;29.23;;
68614;SDS011;55593;51.994;5.882;2023-02-15T02:20:30;47.28;;;29.48;;
68614;SDS011;55593;51.994;5.882;2023-02-15T02:23:16;42.42;;;27.45;;
68614;SDS011;55593;51.994;5.882;2023-02-15T02:25:59;49.35;;;28.75;;
68614;SDS011;55593;51.994;5.882;2023-02-15T02:28:57;34.50;;;20.65;;
68614;SDS011;55593;51.994;5.882;2023-02-15T02:31:46;46.55;;;28.83;;
68614;SDS011;55593;51.994;5.882;2023-02-15T02:34:28;34.35;;;21.80;;
68614;SDS011;55593;51.994;5.882;2023-02-15T02:36:59;44.85;;;27.73;;
68614;SDS011;55593;51.994;5.882;2023-02-15T02:39:33;45.00;;;27.88;;
68614;SDS011;55593;51.994;5.882;2023-02-15T02:42:09;53.08;;;29.55;;
68614;SDS011;55593;51.994;5.882;2023-02-15T02:44:42;48.55;;;26.90;;
68614;SDS011;55593;51.994;5.882;2023-02-15T02:47:13;49.67;;;28.80;;
68614;SDS011;55593;51.994;5.882;2023-02-15T02:49:47;46.85;;;29.02;;
68614;SDS011;55593;51.994;5.882;2023-02-15T02:55:05;47.25;;;27.33;;
68614;SDS011;55593;51.994;5.882;2023-02-15T02:57:37;45.05;;;26.85;;
68614;SDS011;55593;51.994;5.882;2023-02-15T03:00:09;44.33;;;27.50;;
68614;SDS011;55593;51.994;5.882;2023-02-15T03:02:40;45.13;;;26.92;;
68614;SDS011;55593;51.994;5.882;2023-02-15T03:05:13;42.72;;;26.98;;
68614;SDS011;55593;51.994;5.882;2023-02-15T03:07:44;43.53;;;27.98;;
68614;SDS011;55593;51.994;5.882;2023-02-15T03:10:17;45.95;;;28.20;;
68614;SDS011;55593;51.994;5.882;2023-02-15T03:12:49;51.05;;;29.15;;
68614;SDS011;55593;51.994;5.882;2023-02-15T03:15:19;48.28;;;27.70;;
68614;SDS011;55593;51.994;5.882;2023-02-15T03:17:50;48.05;;;28.20;;
68614;SDS011;55593;51.994;5.882;2023-02-15T03:20:25;48.42;;;29.05;;
68614;SDS011;55593;51.994;5.882;2023-02-15T03:23:00;43.15;;;27.52;;
68614;SDS011;55593;51.994;5.882;2023-02-15T03:25:32;44.25;;;26.98;;
68614;SDS011;55593;51.994;5.882;2023-02-15T03:28:05;41.00;;;26.20;;
68614;SDS011;55593;51.994;5.882;2023-02-15T03:30:35;46.88;;;27.45;;
68614;SDS011;55593;51.994;5.882;2023-02-15T03:33:06;45.45;;;26.77;;
68614;SDS011;55593;51.994;5.882;2023-02-15T03:35:39;43.42;;;27.45;;
68614;SDS011;55593;51.994;5.882;2023-02-15T03:38:12;47.20;;;27.65;;
68614;SDS011;55593;51.994;5.882;2023-02-15T03:40:45;42.05;;;27.15;;
68614;SDS011;55593;51.994;5.882;2023-02-15T03:43:29;44.22;;;26.83;;
68614;SDS011;55593;51.994;5.882;2023-02-15T03:46:05;44.42;;;25.35;;
68614;SDS011;55593;51.994;5.882;2023-02-15T03:48:37;40.25;;;25.70;;
68614;SDS011;55593;51.994;5.882;2023-02-15T03:51:12;47.55;;;27.15;;
68614;SDS011;55593;51.994;5.882;2023-02-15T03:53:56;45.47;;;27.25;;
68614;SDS011;55593;51.994;5.882;2023-02-15T03:56:26;44.95;;;26.63;;
68614;SDS011;55593;51.994;5.882;2023-02-15T03:58:55;54.40;;;27.88;;
68614;SDS011;55593;51.994;5.882;2023-02-15T04:01:38;47.30;;;27.40;;
68614;SDS011;55593;51.994;5.882;2023-02-15T04:04:25;41.90;;;25.85;;
68614;SDS011;55593;51.994;5.882;2023-02-15T04:07:00;44.65;;;26.42;;
68614;SDS011;55593;51.994;5.882;2023-02-15T04:09:29;51.30;;;26.05;;
68614;SDS011;55593;51.994;5.882;2023-02-15T04:12:11;43.70;;;26.92;;
68614;SDS011;55593;51.994;5.882;2023-02-15T04:14:40;44.47;;;25.83;;
68614;SDS011;55593;51.994;5.882;2023-02-15T04:17:22;46.67;;;25.25;;
68614;SDS011;55593;51.994;5.882;2023-02-15T04:19:51;41.88;;;26.55;;
68614;SDS011;55593;51.994;5.882;2023-02-15T04:22:35;41.92;;;26.35;;
68614;SDS011;55593;51.994;5.882;2023-02-15T04:25:17;48.63;;;27.17;;
68614;SDS011;55593;51.994;5.882;2023-02-15T04:27:47;42.17;;;26.05;;
68614;SDS011;55593;51.994;5.882;2023-02-15T04:30:19;44.15;;;26.38;;
68614;SDS011;55593;51.994;5.882;2023-02-15T04:32:50;42.28;;;25.17;;
68614;SDS011;55593;51.994;5.882;2023-02-15T04:35:19;44.63;;;28.10;;
68614;SDS011;55593;51.994;5.882;2023-02-15T04:37:51;41.85;;;25.25;;
68614;SDS011;55593;51.994;5.882;2023-02-15T04:40:21;41.15;;;25.85;;
68614;SDS011;55593;51.994;5.882;2023-02-15T04:48:29;46.28;;;26.23;;
68614;SDS011;55593;51.994;5.882;2023-02-15T04:50:58;37.53;;;23.75;;
68614;SDS011;55593;51.994;5.882;2023-02-15T04:53:30;41.17;;;24.33;;
68614;SDS011;55593;51.994;5.882;2023-02-15T04:55:59;40.55;;;26.05;;
68614;SDS011;55593;51.994;5.882;2023-02-15T04:58:28;41.42;;;26.17;;
68614;SDS011;55593;51.994;5.882;2023-02-15T05:00:57;42.55;;;25.48;;
68614;SDS011;55593;51.994;5.882;2023-02-15T05:03:27;45.00;;;25.50;;
68614;SDS011;55593;51.994;5.882;2023-02-15T05:05:56;42.17;;;24.88;;
68614;SDS011;55593;51.994;5.882;2023-02-15T05:08:25;39.42;;;25.25;;
68614;SDS011;55593;51.994;5.882;2023-02-15T05:10:57;44.67;;;24.33;;
68614;SDS011;55593;51.994;5.882;2023-02-15T05:13:26;41.00;;;26.42;;
68614;SDS011;55593;51.994;5.882;2023-02-15T05:15:55;49.95;;;26.45;;
68614;SDS011;55593;51.994;5.882;2023-02-15T05:18:24;41.50;;;23.42;;
68614;SDS011;55593;51.994;5.882;2023-02-15T05:20:53;39.17;;;25.08;;
68614;SDS011;55593;51.994;5.882;2023-02-15T05:23:23;42.97;;;25.35;;
68614;SDS011;55593;51.994;5.882;2023-02-15T05:25:52;43.13;;;26.02;;
68614;SDS011;55593;51.994;5.882;2023-02-15T05:28:36;47.03;;;26.58;;
68614;SDS011;55593;51.994;5.882;2023-02-15T05:31:07;45.17;;;25.88;;
68614;SDS011;55593;51.994;5.882;2023-02-15T05:33:38;43.80;;;25.08;;
68614;SDS011;55593;51.994;5.882;2023-02-15T05:36:08;42.33;;;26.42;;
68614;SDS011;55593;51.994;5.882;2023-02-15T05:38:37;39.45;;;25.20;;
68614;SDS011;55593;51.994;5.882;2023-02-15T05:41:07;42.58;;;26.27;;
68614;SDS011;55593;51.994;5.882;2023-02-15T05:43:39;45.03;;;27.23;;
68614;SDS011;55593;51.994;5.882;2023-02-15T05:46:09;45.67;;;26.80;;
68614;SDS011;55593;51.994;5.882;2023-02-15T05:48:38;44.45;;;25.35;;
68614;SDS011;55593;51.994;5.882;2023-02-15T05:53:57;45.58;;;26.85;;
68614;SDS011;55593;51.994;5.882;2023-02-15T05:56:26;46.50;;;25.50;;
68614;SDS011;55593;51.994;5.882;2023-02-15T05:58:58;41.67;;;26.00;;
68614;SDS011;55593;51.994;5.882;2023-02-15T06:01:27;45.30;;;26.17;;
68614;SDS011;55593;51.994;5.882;2023-02-15T06:03:56;46.17;;;26.98;;
68614;SDS011;55593;51.994;5.882;2023-02-15T06:06:25;40.20;;;25.40;;
68614;SDS011;55593;51.994;5.882;2023-02-15T06:08:54;46.08;;;25.95;;
68614;SDS011;55593;51.994;5.882;2023-02-15T06:11:24;44.92;;;25.83;;
68614;SDS011;55593;51.994;5.882;2023-02-15T06:13:53;42.30;;;25.25;;
68614;SDS011;55593;51.994;5.882;2023-02-15T06:16:25;44.22;;;26.15;;
68614;SDS011;55593;51.994;5.882;2023-02-15T06:18:54;45.08;;;26.35;;
68614;SDS011;55593;51.994;5.882;2023-02-15T06:21:24;42.42;;;24.60;;
68614;SDS011;55593;51.994;5.882;2023-02-15T06:23:54;42.72;;;25.80;;
68614;SDS011;55593;51.994;5.882;2023-02-15T06:26:23;46.35;;;27.00;;
68614;SDS011;55593;51.994;5.882;2023-02-15T06:28:52;40.20;;;24.38;;
68614;SDS011;55593;51.994;5.882;2023-02-15T06:31:21;45.15;;;26.90;;
68614;SDS011;55593;51.994;5.882;2023-02-15T06:33:54;43.30;;;26.40;;
68614;SDS011;55593;51.994;5.882;2023-02-15T06:36:26;43.78;;;26.17;;
68614;SDS011;55593;51.994;5.882;2023-02-15T06:38:56;44.92;;;25.98;;
68614;SDS011;55593;51.994;5.882;2023-02-15T06:41:25;41.80;;;25.08;;
68614;SDS011;55593;51.994;5.882;2023-02-15T06:43:55;43.30;;;26.42;;
68614;SDS011;55593;51.994;5.882;2023-02-15T06:46:24;41.22;;;24.48;;
68614;SDS011;55593;51.994;5.882;2023-02-15T06:48:56;44.97;;;26.38;;
68614;SDS011;55593;51.994;5.882;2023-02-15T06:51:25;47.30;;;26.95;;
68614;SDS011;55593;51.994;5.882;2023-02-15T06:53:54;45.15;;;27.45;;
68614;SDS011;55593;51.994;5.882;2023-02-15T06:56:23;44.85;;;27.05;;
68614;SDS011;55593;51.994;5.882;2023-02-15T06:58:52;48.15;;;27.67;;
68614;SDS011;55593;51.994;5.882;2023-02-15T07:01:21;50.80;;;28.10;;
68614;SDS011;55593;51.994;5.882;2023-02-15T07:03:51;49.65;;;27.85;;
68614;SDS011;55593;51.994;5.882;2023-02-15T07:06:23;45.05;;;27.40;;
68614;SDS011;55593;51.994;5.882;2023-02-15T07:08:52;46.85;;;27.67;;
68614;SDS011;55593;51.994;5.882;2023-02-15T07:11:21;46.22;;;27.30;;
68614;SDS011;55593;51.994;5.882;2023-02-15T07:14:02;51.40;;;26.92;;
68614;SDS011;55593;51.994;5.882;2023-02-15T07:16:32;45.80;;;26.65;;
68614;SDS011;55593;51.994;5.882;2023-02-15T07:19:01;49.10;;;27.85;;
68614;SDS011;55593;51.994;5.882;2023-02-15T07:21:32;49.95;;;29.02;;
68614;SDS011;55593;51.994;5.882;2023-02-15T07:24:02;46.65;;;27.23;;
68614;SDS011;55593;51.994;5.882;2023-02-15T07:26:31;50.65;;;28.50;;
68614;SDS011;55593;51.994;5.882;2023-02-15T07:29:01;50.55;;;28.35;;
68614;SDS011;55593;51.994;5.882;2023-02-15T07:31:30;44.50;;;27.92;;
68614;SDS011;55593;51.994;5.882;2023-02-15T07:33:59;55.67;;;30.38;;
68614;SDS011;55593;51.994;5.882;2023-02-15T07:36:28;47.53;;;28.05;;
68614;SDS011;55593;51.994;5.882;2023-02-15T07:39:00;46.83;;;28.85;;
68614;SDS011;55593;51.994;5.882;2023-02-15T07:41:29;48.83;;;28.90;;
68614;SDS011;55593;51.994;5.882;2023-02-15T07:43:58;53.50;;;31.83;;
68614;SDS011;55593;51.994;5.882;2023-02-15T07:46:28;50.78;;;28.48;;
68614;SDS011;55593;51.994;5.882;2023-02-15T07:48:57;49.47;;;30.27;;
68614;SDS011;55593;51.994;5.882;2023-02-15T07:51:26;51.20;;;28.23;;
68614;SDS011;55593;51.994;5.882;2023-02-15T07:53:55;52.65;;;29.75;;
68614;SDS011;55593;51.994;5.882;2023-02-15T07:56:27;49.55;;;28.33;;
68614;SDS011;55593;51.994;5.882;2023-02-15T07:58:56;53.03;;;31.40;;
68614;SDS011;55593;51.994;5.882;2023-02-15T08:01:29;47.42;;;27.70;;
68614;SDS011;55593;51.994;5.882;2023-02-15T08:03:59;49.03;;;29.02;;
68614;SDS011;55593;51.994;5.882;2023-02-15T08:06:29;52.63;;;29.98;;
68614;SDS011;55593;51.994;5.882;2023-02-15T08:09:00;53.90;;;31.05;;
68614;SDS011;55593;51.994;5.882;2023-02-15T08:11:32;52.40;;;31.65;;
68614;SDS011;55593;51.994;5.882;2023-02-15T08:14:03;53.80;;;31.77;;
68614;SDS011;55593;51.994;5.882;2023-02-15T08:16:34;57.83;;;29.67;;
68614;SDS011;55593;51.994;5.882;2023-02-15T08:19:04;55.40;;;30.27;;
68614;SDS011;55593;51.994;5.882;2023-02-15T08:21:35;51.47;;;30.25;;
68614;SDS011;55593;51.994;5.882;2023-02-15T08:24:07;50.80;;;30.83;;
68614;SDS011;55593;51.994;5.882;2023-02-15T08:26:39;50.58;;;31.02;;
68614;SDS011;55593;51.994;5.882;2023-02-15T08:29:10;52.95;;;29.02;;
68614;SDS011;55593;51.994;5.882;2023-02-15T08:31:40;54.63;;;30.25;;
68614;SDS011;55593;51.994;5.882;2023-02-15T08:34:09;49.38;;;30.48;;
68614;SDS011;55593;51.994;5.882;2023-02-15T08:36:39;53.50;;;30.48;;
68614;SDS011;55593;51.994;5.882;2023-02-15T08:39:11;52.47;;;30.60;;
68614;SDS011;55593;51.994;5.882;2023-02-15T08:41:44;47.03;;;28.95;;
68614;SDS011;55593;51.994;5.882;2023-02-15T08:44:15;50.92;;;30.33;;
68614;SDS011;55593;51.994;5.882;2023-02-15T08:46:46;54.90;;;30.63;;
68614;SDS011;55593;51.994;5.882;2023-02-15T08:49:16;53.58;;;29.00;;
68614;SDS011;55593;51.994;5.882;2023-02-15T08:51:47;53.67;;;29.67;;
68614;SDS011;55593;51.994;5.882;2023-02-15T08:54:18;59.67;;;30.90;;
68614;SDS011;55593;51.994;5.882;2023-02-15T08:56:51;50.35;;;31.35;;
68614;SDS011;55593;51.994;5.882;2023-02-15T08:59:21;51.80;;;30.75;;
68614;SDS011;55593;51.994;5.882;2023-02-15T09:01:53;54.33;;;29.23;;
68614;SDS011;55593;51.994;5.882;2023-02-15T09:04:22;54.38;;;31.83;;
68614;SDS011;55593;51.994;5.882;2023-02-15T09:06:51;58.20;;;31.00;;
68614;SDS011;55593;51.994;5.882;2023-02-15T09:09:21;52.33;;;30.05;;
68614;SDS011;55593;51.994;5.882;2023-02-15T09:11:53;53.33;;;30.00;;
68614;SDS011;55593;51.994;5.882;2023-02-15T09:14:22;52.83;;;30.98;;
68614;SDS011;55593;51.994;5.882;2023-02-15T09:16:52;51.88;;;31.63;;
68614;SDS011;55593;51.994;5.882;2023-02-15T09:19:22;47.30;;;28.48;;
68614;SDS011;55593;51.994;5.882;2023-02-15T09:21:51;54.35;;;32.15;;
68614;SDS011;55593;51.994;5.882;2023-02-15T09:24:21;51.70;;;30.70;;
68614;SDS011;55593;51.994;5.882;2023-02-15T09:26:52;56.08;;;33.45;;
68614;SDS011;55593;51.994;5.882;2023-02-15T09:29:22;56.22;;;31.75;;
68614;SDS011;55593;51.994;5.882;2023-02-15T09:31:51;53.65;;;32.15;;
68614;SDS011;55593;51.994;5.882;2023-02-15T09:34:21;56.05;;;30.98;;
68614;SDS011;55593;51.994;5.882;2023-02-15T09:36:50;53.85;;;31.55;;
68614;SDS011;55593;51.994;5.882;2023-02-15T09:39:20;58.60;;;32.40;;
68614;SDS011;55593;51.994;5.882;2023-02-15T09:45:13;55.72;;;32.50;;
68614;SDS011;55593;51.994;5.882;2023-02-15T09:47:58;49.42;;;29.17;;
68614;SDS011;55593;51.994;5.882;2023-02-15T09:50:49;50.50;;;31.00;;
68614;SDS011;55593;51.994;5.882;2023-02-15T09:53:31;53.45;;;31.40;;
68614;SDS011;55593;51.994;5.882;2023-02-15T09:56:06;50.25;;;30.52;;
68614;SDS011;55593;51.994;5.882;2023-02-15T09:58:42;54.88;;;32.35;;
68614;SDS011;55593;51.994;5.882;2023-02-15T10:01:23;56.55;;;32.10;;
68614;SDS011;55593;51.994;5.882;2023-02-15T10:04:00;49.70;;;29.58;;
68614;SDS011;55593;51.994;5.882;2023-02-15T10:06:38;54.35;;;30.63;;
68614;SDS011;55593;51.994;5.882;2023-02-15T10:12:08;55.40;;;30.65;;
68614;SDS011;55593;51.994;5.882;2023-02-15T10:14:54;52.13;;;30.98;;
68614;SDS011;55593;51.994;5.882;2023-02-15T10:17:38;36.63;;;21.23;;
68614;SDS011;55593;51.994;5.882;2023-02-15T10:20:26;54.08;;;32.90;;
68614;SDS011;55593;51.994;5.882;2023-02-15T10:23:05;48.30;;;29.95;;
68614;SDS011;55593;51.994;5.882;2023-02-15T10:25:42;49.60;;;30.65;;
68614;SDS011;55593;51.994;5.882;2023-02-15T10:28:16;49.17;;;31.27;;
68614;SDS011;55593;51.994;5.882;2023-02-15T10:30:48;53.03;;;31.77;;
68614;SDS011;55593;51.994;5.882;2023-02-15T10:33:37;57.67;;;31.30;;
68614;SDS011;55593;51.994;5.882;2023-02-15T10:36:11;53.47;;;29.20;;
68614;SDS011;55593;51.994;5.882;2023-02-15T10:38:50;49.80;;;28.35;;
68614;SDS011;55593;51.994;5.882;2023-02-15T10:41:25;51.88;;;30.70;;
68614;SDS011;55593;51.994;5.882;2023-02-15T10:44:03;52.17;;;29.77;;
68614;SDS011;55593;51.994;5.882;2023-02-15T10:46:43;50.22;;;28.88;;
68614;SDS011;55593;51.994;5.882;2023-02-15T10:49:35;48.92;;;29.85;;
68614;SDS011;55593;51.994;5.882;2023-02-15T10:52:14;49.85;;;29.92;;
68614;SDS011;55593;51.994;5.882;2023-02-15T10:54:49;58.25;;;31.05;;
68614;SDS011;55593;51.994;5.882;2023-02-15T10:57:26;55.17;;;30.95;;
68614;SDS011;55593;51.994;5.882;2023-02-15T11:00:02;55.28;;;30.45;;
68614;SDS011;55593;51.994;5.882;2023-02-15T11:02:42;49.70;;;29.30;;
68614;SDS011;55593;51.994;5.882;2023-02-15T11:05:24;48.15;;;27.80;;
68614;SDS011;55593;51.994;5.882;2023-02-15T11:08:02;45.25;;;26.77;;
68614;SDS011;55593;51.994;5.882;2023-02-15T11:10:33;52.97;;;28.90;;
68614;SDS011;55593;51.994;5.882;2023-02-15T11:13:05;54.97;;;31.08;;
68614;SDS011;55593;51.994;5.882;2023-02-15T11:15:39;50.75;;;27.90;;
68614;SDS011;55593;51.994;5.882;2023-02-15T11:18:11;48.50;;;27.92;;
68614;SDS011;55593;51.994;5.882;2023-02-15T11:20:48;51.95;;;29.40;;
68614;SDS011;55593;51.994;5.882;2023-02-15T11:23:21;51.55;;;27.85;;
68614;SDS011;55593;51.994;5.882;2023-02-15T11:25:54;50.35;;;29.33;;
68614;SDS011;55593;51.994;5.882;2023-02-15T11:28:27;48.08;;;26.75;;
68614;SDS011;55593;51.994;5.882;2023-02-15T11:31:02;46.88;;;25.92;;
68614;SDS011;55593;51.994;5.882;2023-02-15T11:33:39;47.28;;;27.23;;
68614;SDS011;55593;51.994;5.882;2023-02-15T11:36:15;47.95;;;26.95;;
68614;SDS011;55593;51.994;5.882;2023-02-15T11:38:47;46.92;;;28.75;;
68614;SDS011;55593;51.994;5.882;2023-02-15T11:41:18;52.10;;;28.83;;
68614;SDS011;55593;51.994;5.882;2023-02-15T11:43:50;52.80;;;27.60;;
68614;SDS011;55593;51.994;5.882;2023-02-15T11:46:23;49.50;;;27.42;;
68614;SDS011;55593;51.994;5.882;2023-02-15T11:48:52;43.53;;;27.23;;
68614;SDS011;55593;51.994;5.882;2023-02-15T11:51:24;44.92;;;25.65;;
68614;SDS011;55593;51.994;5.882;2023-02-15T11:53:54;45.38;;;27.58;;
68614;SDS011;55593;51.994;5.882;2023-02-15T11:56:25;51.35;;;27.60;;
68614;SDS011;55593;51.994;5.882;2023-02-15T11:58:55;52.28;;;28.33;;
68614;SDS011;55593;51.994;5.882;2023-02-15T12:01:28;45.80;;;28.35;;
68614;SDS011;55593;51.994;5.882;2023-02-15T12:04:01;44.72;;;26.67;;
68614;SDS011;55593;51.994;5.882;2023-02-15T12:06:37;45.85;;;28.15;;
68614;SDS011;55593;51.994;5.882;2023-02-15T12:09:13;44.50;;;27.38;;
68614;SDS011;55593;51.994;5.882;2023-02-15T12:11:46;56.03;;;29.95;;
68614;SDS011;55593;51.994;5.882;2023-02-15T12:14:16;44.75;;;28.23;;
68614;SDS011;55593;51.994;5.882;2023-02-15T12:16:46;49.35;;;30.52;;
68614;SDS011;55593;51.994;5.882;2023-02-15T12:19:26;52.05;;;30.25;;
68614;SDS011;55593;51.994;5.882;2023-02-15T12:22:01;47.25;;;29.17;;
68614;SDS011;55593;51.994;5.882;2023-02-15T12:24:32;53.55;;;30.55;;
68614;SDS011;55593;51.994;5.882;2023-02-15T12:27:02;52.42;;;30.95;;
68614;SDS011;55593;51.994;5.882;2023-02-15T12:29:34;55.10;;;29.98;;
68614;SDS011;55593;51.994;5.882;2023-02-15T12:32:09;49.00;;;28.60;;
68614;SDS011;55593;51.994;5.882;2023-02-15T12:34:40;51.38;;;32.10;;
68614;SDS011;55593;51.994;5.882;2023-02-15T12:37:15;54.03;;;29.55;;
68614;SDS011;55593;51.994;5.882;2023-02-15T12:39:51;54.33;;;28.40;;
68614;SDS011;55593;51.994;5.882;2023-02-15T12:42:21;49.03;;;29.55;;
68614;SDS011;55593;51.994;5.882;2023-02-15T12:44:55;49.13;;;29.35;;
68614;SDS011;55593;51.994;5.882;2023-02-15T12:47:26;50.97;;;28.48;;
68614;SDS011;55593;51.994;5.882;2023-02-15T12:50:11;48.25;;;31.05;;
68614;SDS011;55593;51.994;5.882;2023-02-15T12:52:48;48.80;;;28.88;;
68614;SDS011;55593;51.994;5.882;2023-02-15T12:55:19;50.83;;;31.90;;
68614;SDS011;55593;51.994;5.882;2023-02-15T12:58:04;56.45;;;31.60;;
68614;SDS011;55593;51.994;5.882;2023-02-15T13:00:34;53.97;;;31.17;;
68614;SDS011;55593;51.994;5.882;2023-02-15T13:03:04;49.85;;;30.95;;
68614;SDS011;55593;51.994;5.882;2023-02-15T13:05:34;53.10;;;30.98;;
68614;SDS011;55593;51.994;5.882;2023-02-15T13:08:12;51.72;;;30.52;;
68614;SDS011;55593;51.994;5.882;2023-02-15T13:10:52;52.20;;;30.17;;
68614;SDS011;55593;51.994;5.882;2023-02-15T13:13:24;51.90;;;30.17;;
68614;SDS011;55593;51.994;5.882;2023-02-15T13:15:56;56.83;;;32.55;;
68614;SDS011;55593;51.994;5.882;2023-02-15T13:18:29;53.45;;;30.77;;
68614;SDS011;55593;51.994;5.882;2023-02-15T13:21:01;55.67;;;29.83;;
68614;SDS011;55593;51.994;5.882;2023-02-15T13:23:37;49.85;;;30.67;;
68614;SDS011;55593;51.994;5.882;2023-02-15T13:26:08;53.03;;;30.52;;
68614;SDS011;55593;51.994;5.882;2023-02-15T13:28:41;53.50;;;32.10;;
68614;SDS011;55593;51.994;5.882;2023-02-15T13:31:13;60.40;;;31.83;;
68614;SDS011;55593;51.994;5.882;2023-02-15T13:33:44;48.47;;;30.50;;
68614;SDS011;55593;51.994;5.882;2023-02-15T13:36:18;56.30;;;31.40;;
68614;SDS011;55593;51.994;5.882;2023-02-15T13:38:56;54.47;;;31.90;;
68614;SDS011;55593;51.994;5.882;2023-02-15T13:41:31;57.00;;;32.42;;
68614;SDS011;55593;51.994;5.882;2023-02-15T13:44:03;55.00;;;32.17;;
68614;SDS011;55593;51.994;5.882;2023-02-15T13:46:42;53.70;;;31.73;;
68614;SDS011;55593;51.994;5.882;2023-02-15T13:49:25;50.80;;;31.42;;
68614;SDS011;55593;51.994;5.882;2023-02-15T13:52:02;55.83;;;30.42;;
68614;SDS011;55593;51.994;5.882;2023-02-15T13:54:45;58.20;;;32.95;;
68614;SDS011;55593;51.994;5.882;2023-02-15T13:57:38;55.58;;;32.30;;
68614;SDS011;55593;51.994;5.882;2023-02-15T14:00:16;49.95;;;31.60;;
68614;SDS011;55593;51.994;5.882;2023-02-15T14:03:00;49.47;;;31.15;;
68614;SDS011;55593;51.994;5.882;2023-02-15T14:05:51;53.78;;;32.25;;
68614;SDS011;55593;51.994;5.882;2023-02-15T14:08:29;57.97;;;34.88;;
68614;SDS011;55593;51.994;5.882;2023-02-15T14:11:12;51.85;;;33.30;;
68614;SDS011;55593;51.994;5.882;2023-02-15T14:13:50;55.80;;;32.88;;
68614;SDS011;55593;51.994;5.882;2023-02-15T14:16:30;59.30;;;32.90;;
68614;SDS011;55593;51.994;5.882;2023-02-15T14:19:05;55.67;;;33.47;;
68614;SDS011;55593;51.994;5.882;2023-02-15T14:21:43;54.75;;;32.03;;
68614;SDS011;55593;51.994;5.882;2023-02-15T14:24:20;56.33;;;32.35;;
68614;SDS011;55593;51.994;5.882;2023-02-15T14:27:07;52.88;;;31.10;;
68614;SDS011;55593;51.994;5.882;2023-02-15T14:29:47;58.75;;;33.85;;
68614;SDS011;55593;51.994;5.882;2023-02-15T14:32:19;51.25;;;31.60;;
68614;SDS011;55593;51.994;5.882;2023-02-15T14:34:52;55.72;;;31.65;;
68614;SDS011;55593;51.994;5.882;2023-02-15T14:37:26;49.67;;;31.42;;
68614;SDS011;55593;51.994;5.882;2023-02-15T14:40:02;53.03;;;31.40;;
68614;SDS011;55593;51.994;5.882;2023-02-15T14:42:50;57.42;;;31.85;;
68614;SDS011;55593;51.994;5.882;2023-02-15T14:45:24;58.55;;;32.78;;
68614;SDS011;55593;51.994;5.882;2023-02-15T14:48:01;57.47;;;32.95;;
68614;SDS011;55593;51.994;5.882;2023-02-15T14:50:37;54.90;;;33.80;;
68614;SDS011;55593;51.994;5.882;2023-02-15T15:08:17;56.58;;;32.85;;
68614;SDS011;55593;51.994;5.882;2023-02-15T15:10:51;53.05;;;33.35;;
68614;SDS011;55593;51.994;5.882;2023-02-15T15:13:34;55.63;;;31.95;;
68614;SDS011;55593;51.994;5.882;2023-02-15T15:16:23;52.72;;;32.17;;
68614;SDS011;55593;51.994;5.882;2023-02-15T15:19:09;64.57;;;33.53;;
68614;SDS011;55593;51.994;5.882;2023-02-15T15:21:51;50.33;;;31.10;;
68614;SDS011;55593;51.994;5.882;2023-02-15T15:33:13;54.10;;;32.17;;
68614;SDS011;55593;51.994;5.882;2023-02-15T15:35:55;59.88;;;32.42;;
68614;SDS011;55593;51.994;5.882;2023-02-15T15:38:39;57.67;;;34.15;;
68614;SDS011;55593;51.994;5.882;2023-02-15T15:41:22;52.33;;;31.98;;